createdAt,value
2023-01-29T00:01:58.811Z,0.80
2023-01-29T00:04:25.895Z,0.70
2023-01-29T00:06:52.602Z,0.80
2023-01-29T00:09:19.509Z,1.00
2023-01-29T00:11:46.222Z,1.10
2023-01-29T00:14:13.608Z,1.10
2023-01-29T00:16:40.574Z,0.80
2023-01-29T00:19:07.283Z,0.70
2023-01-29T00:21:33.945Z,0.70
2023-01-29T00:24:00.945Z,0.70
2023-01-29T00:26:28.485Z,0.60
2023-01-29T00:28:57.441Z,0.70
2023-01-29T00:31:25.905Z,0.70
2023-01-29T00:33:52.852Z,0.60
2023-01-29T00:36:22.060Z,0.70
2023-01-29T00:38:54.805Z,0.80
2023-01-29T00:41:40.567Z,0.80
2023-01-29T00:44:26.411Z,0.60
2023-01-29T00:46:53.139Z,0.80
2023-01-29T00:49:19.930Z,0.60
2023-01-29T00:52:06.518Z,0.50
2023-01-29T00:54:33.363Z,0.60
2023-01-29T00:57:00.622Z,0.50
2023-01-29T00:59:27.411Z,0.60
2023-01-29T01:02:12.623Z,0.60
2023-01-29T01:04:39.359Z,0.50
2023-01-29T01:07:06.493Z,0.70
2023-01-29T01:09:54.331Z,0.70
2023-01-29T01:12:21.652Z,0.70
2023-01-29T01:14:48.551Z,0.80
2023-01-29T01:17:15.551Z,0.80
2023-01-29T01:19:42.370Z,0.80
2023-01-29T01:22:08.997Z,0.90
2023-01-29T01:24:35.861Z,0.90
2023-01-29T01:27:02.505Z,0.90
2023-01-29T01:29:29.291Z,0.80
2023-01-29T01:31:56.074Z,0.80
2023-01-29T01:34:22.910Z,1.00
2023-01-29T01:36:49.759Z,0.90
2023-01-29T01:39:16.445Z,1.00
2023-01-29T01:41:43.066Z,1.10
2023-01-29T01:44:48.168Z,1.00
2023-01-29T01:47:16.478Z,1.00
2023-01-29T01:49:44.858Z,1.10
2023-01-29T01:52:13.658Z,1.10
2023-01-29T01:54:40.473Z,1.20
2023-01-29T01:57:15.774Z,1.10
2023-01-29T01:59:59.760Z,1.10
2023-01-29T02:02:46.028Z,1.20
2023-01-29T02:05:33.054Z,1.00
2023-01-29T02:08:18.885Z,1.10
2023-01-29T02:10:48.777Z,1.20
2023-01-29T02:13:17.850Z,1.40
2023-01-29T02:15:48.888Z,1.10
2023-01-29T02:18:21.955Z,0.90
2023-01-29T02:21:25.058Z,0.90
2023-01-29T02:24:03.525Z,1.20
2023-01-29T02:26:44.877Z,0.90
2023-01-29T02:29:51.800Z,0.80
2023-01-29T02:32:32.024Z,0.80
2023-01-29T02:35:30.003Z,0.80
2023-01-29T02:38:17.995Z,0.90
2023-01-29T02:41:03.879Z,1.00
2023-01-29T02:44:03.553Z,0.80
2023-01-29T02:47:00.176Z,0.80
2023-01-29T02:49:44.787Z,0.90
2023-01-29T02:52:15.977Z,0.80
2023-01-29T02:54:55.652Z,0.70
2023-01-29T02:57:29.516Z,0.70
2023-01-29T03:00:02.327Z,0.60
2023-01-29T03:02:43.031Z,0.80
2023-01-29T03:05:15.335Z,0.90
2023-01-29T03:07:48.674Z,0.90
2023-01-29T03:10:24.761Z,0.90
2023-01-29T03:12:59.652Z,0.80
2023-01-29T03:15:38.619Z,0.90
2023-01-29T03:18:18.168Z,1.00
2023-01-29T03:20:51.853Z,1.00
2023-01-29T03:23:50.557Z,0.90
2023-01-29T03:26:38.514Z,0.90
2023-01-29T03:29:25.644Z,0.70
2023-01-29T03:32:07.758Z,0.90
2023-01-29T03:34:52.404Z,0.90
2023-01-29T03:37:35.907Z,0.70
2023-01-29T03:40:05.226Z,0.60
2023-01-29T03:43:05.038Z,0.60
2023-01-29T03:45:56.429Z,0.70
2023-01-29T03:48:32.218Z,0.70
2023-01-29T03:51:08.655Z,0.80
2023-01-29T03:53:57.378Z,0.90
2023-01-29T03:56:57.638Z,0.70
2023-01-29T03:59:57.613Z,0.50
2023-01-29T04:02:35.763Z,0.60
2023-01-29T04:05:09.889Z,0.70
2023-01-29T04:07:39.768Z,0.70
2023-01-29T04:10:12.856Z,0.70
2023-01-29T04:12:46.829Z,0.70
2023-01-29T04:15:16.595Z,0.60
2023-01-29T04:17:49.367Z,0.70
2023-01-29T04:20:16.712Z,0.80
2023-01-29T04:22:47.252Z,0.80
2023-01-29T04:25:26.386Z,0.80
2023-01-29T04:28:08.594Z,0.70
2023-01-29T04:30:44.143Z,0.60
2023-01-29T04:33:32.943Z,0.50
2023-01-29T04:36:33.218Z,0.50
2023-01-29T04:39:12.109Z,0.50
2023-01-29T04:41:51.691Z,0.70
2023-01-29T04:44:38.075Z,0.80
2023-01-29T04:47:19.467Z,0.80
2023-01-29T04:49:56.818Z,0.70
2023-01-29T04:52:56.539Z,0.70
2023-01-29T04:55:29.217Z,0.70
2023-01-29T04:58:04.790Z,0.40
2023-01-29T05:00:36.899Z,0.40
2023-01-29T05:03:03.906Z,0.50
2023-01-29T05:05:31.614Z,0.60
2023-01-29T05:07:59.757Z,0.60
2023-01-29T05:10:27.169Z,0.70
2023-01-29T05:13:00.996Z,0.70
2023-01-29T05:15:52.869Z,0.50
2023-01-29T05:18:19.846Z,0.40
2023-01-29T05:20:47.869Z,0.30
2023-01-29T05:23:19.964Z,0.30
2023-01-29T05:25:47.918Z,0.30
2023-01-29T05:28:17.458Z,0.30
2023-01-29T05:30:50.202Z,0.30
2023-01-29T05:33:22.501Z,0.60
2023-01-29T05:35:50.211Z,0.70
2023-01-29T05:38:18.480Z,0.60
2023-01-29T05:40:45.781Z,0.60
2023-01-29T05:43:24.126Z,0.40
2023-01-29T05:46:01.141Z,0.50
2023-01-29T05:48:29.260Z,0.40
2023-01-29T05:51:03.221Z,0.30
2023-01-29T05:53:30.446Z,0.20
2023-01-29T05:55:57.261Z,0.10
2023-01-29T05:58:24.571Z,0.10
2023-01-29T06:00:51.295Z,0.20
2023-01-29T06:03:17.988Z,0.40
2023-01-29T06:05:44.760Z,0.40
2023-01-29T06:08:11.599Z,0.30
2023-01-29T06:10:38.238Z,-0.10
2023-01-29T06:13:04.939Z,-0.10
2023-01-29T06:15:31.562Z,0.30
2023-01-29T06:17:58.225Z,0.10
2023-01-29T06:20:25.200Z,-0.10
2023-01-29T06:22:51.820Z,-0.20
2023-01-29T06:25:18.546Z,-0.20
2023-01-29T06:27:45.367Z,0.00
2023-01-29T06:30:12.466Z,0.00
2023-01-29T06:32:39.219Z,0.10
2023-01-29T06:35:06.299Z,0.20
2023-01-29T06:37:32.893Z,0.30
2023-01-29T06:39:59.540Z,0.30
2023-01-29T06:42:27.963Z,0.40
2023-01-29T06:44:56.108Z,0.40
2023-01-29T06:47:23.705Z,0.40
2023-01-29T06:49:50.723Z,0.40
2023-01-29T06:52:17.375Z,0.40
2023-01-29T06:54:44.291Z,0.50
2023-01-29T06:57:11.099Z,0.60
2023-01-29T06:59:37.793Z,0.70
2023-01-29T07:02:04.670Z,0.50
2023-01-29T07:04:31.631Z,0.30
2023-01-29T07:06:59.979Z,0.30
2023-01-29T07:09:26.715Z,0.30
2023-01-29T07:11:53.347Z,0.00
2023-01-29T07:14:20.225Z,0.20
2023-01-29T07:16:46.880Z,0.30
2023-01-29T07:19:13.740Z,0.50
2023-01-29T07:21:40.387Z,0.60
2023-01-29T07:24:07.291Z,0.50
2023-01-29T07:26:34.130Z,0.40
2023-01-29T07:29:00.726Z,0.20
2023-01-29T07:31:27.430Z,0.00
2023-01-29T07:33:54.330Z,0.00
2023-01-29T07:36:21.005Z,-0.10
2023-01-29T07:38:51.477Z,0.10
2023-01-29T07:41:18.182Z,0.40
2023-01-29T07:43:46.273Z,0.30
2023-01-29T07:46:13.032Z,0.10
2023-01-29T07:48:39.704Z,0.00
2023-01-29T07:51:06.846Z,0.10
2023-01-29T07:53:33.538Z,0.40
2023-01-29T07:56:00.205Z,0.60
2023-01-29T07:58:26.887Z,0.20
2023-01-29T08:00:53.585Z,0.30
2023-01-29T08:03:20.796Z,0.40
2023-01-29T08:05:47.953Z,0.30
2023-01-29T08:08:15.270Z,0.30
2023-01-29T08:10:42.604Z,0.50
2023-01-29T08:13:09.841Z,0.40
2023-01-29T08:18:23.174Z,0.40
2023-01-29T08:20:49.833Z,0.40
2023-01-29T08:23:16.675Z,0.70
2023-01-29T08:25:44.232Z,0.70
2023-01-29T08:28:12.341Z,0.60
2023-01-29T08:30:39.392Z,0.70
2023-01-29T08:33:06.216Z,0.60
2023-01-29T08:35:32.847Z,0.50
2023-01-29T08:38:01.610Z,0.50
2023-01-29T08:40:31.810Z,0.50
2023-01-29T08:43:09.452Z,0.40
2023-01-29T08:45:39.243Z,0.50
2023-01-29T08:48:06.418Z,0.50
2023-01-29T08:50:34.920Z,0.60
2023-01-29T08:53:09.775Z,0.60
2023-01-29T08:55:38.540Z,0.80
2023-01-29T08:58:06.450Z,0.70
2023-01-29T09:00:34.030Z,0.60
2023-01-29T09:03:01.016Z,0.70
2023-01-29T09:05:28.611Z,0.60
2023-01-29T09:07:57.859Z,0.50
2023-01-29T09:10:24.611Z,0.70
2023-01-29T09:12:51.401Z,0.70
2023-01-29T09:15:18.476Z,0.90
2023-01-29T09:17:45.351Z,1.00
2023-01-29T09:20:12.130Z,0.80
2023-01-29T09:22:38.773Z,0.50
2023-01-29T09:25:05.932Z,0.60
2023-01-29T09:27:32.598Z,0.90
2023-01-29T09:29:59.305Z,0.80
2023-01-29T09:32:51.962Z,0.70
2023-01-29T09:35:12.590Z,0.80
2023-01-29T09:37:39.308Z,0.80
2023-01-29T09:40:06.828Z,0.80
2023-01-29T09:42:52.052Z,1.00
2023-01-29T09:45:27.173Z,1.10
2023-01-29T09:47:58.745Z,1.20
2023-01-29T09:50:34.580Z,1.00
2023-01-29T09:53:32.580Z,0.80
2023-01-29T09:56:04.202Z,0.80
2023-01-29T09:58:37.131Z,0.90
2023-01-29T10:01:40.157Z,0.80
2023-01-29T10:04:25.651Z,1.00
2023-01-29T10:07:22.532Z,1.00
2023-01-29T10:10:09.865Z,1.10
2023-01-29T10:13:14.403Z,1.30
2023-01-29T10:16:05.897Z,1.30
2023-01-29T10:18:38.399Z,1.30
2023-01-29T10:21:32.245Z,1.40
2023-01-29T10:24:26.056Z,1.50
2023-01-29T10:26:52.958Z,1.40
2023-01-29T10:29:22.084Z,1.40
2023-01-29T10:31:57.458Z,1.40
2023-01-29T10:34:27.187Z,1.40
2023-01-29T10:36:56.039Z,1.30
2023-01-29T10:39:25.280Z,1.40
2023-01-29T10:42:14.946Z,1.50
2023-01-29T10:45:33.309Z,1.40
2023-01-29T10:48:24.038Z,1.50
2023-01-29T10:51:12.011Z,1.60
2023-01-29T10:53:48.798Z,1.40
2023-01-29T10:56:23.153Z,1.20
2023-01-29T10:59:15.788Z,1.50
2023-01-29T11:01:42.530Z,1.40
2023-01-29T11:04:11.866Z,1.50
2023-01-29T11:06:38.710Z,1.30
2023-01-29T11:12:21.712Z,1.70
2023-01-29T11:14:55.396Z,1.70
2023-01-29T11:17:24.492Z,1.90
2023-01-29T11:19:53.330Z,1.90
2023-01-29T11:22:22.781Z,2.00
2023-01-29T11:25:11.026Z,2.00
2023-01-29T11:27:44.087Z,2.10
2023-01-29T11:30:20.670Z,2.10
2023-01-29T11:32:52.498Z,2.20
2023-01-29T11:35:24.865Z,2.10
2023-01-29T11:37:51.794Z,1.90
2023-01-29T11:40:18.786Z,1.80
2023-01-29T11:42:46.852Z,1.80
2023-01-29T11:45:27.678Z,1.90
2023-01-29T11:47:56.255Z,2.00
2023-01-29T11:50:32.983Z,1.90
2023-01-29T11:53:00.292Z,1.90
2023-01-29T11:55:40.964Z,1.90
2023-01-29T11:58:17.867Z,2.00
2023-01-29T12:00:49.895Z,2.10
2023-01-29T12:03:30.726Z,2.30
2023-01-29T12:06:01.759Z,2.40
2023-01-29T12:08:37.189Z,2.20
2023-01-29T12:11:23.651Z,2.40
2023-01-29T12:14:02.270Z,2.10
2023-01-29T12:16:35.308Z,2.20
2023-01-29T12:19:13.974Z,2.40
2023-01-29T12:21:48.827Z,2.20
2023-01-29T12:24:29.071Z,2.20
2023-01-29T12:27:02.376Z,2.20
2023-01-29T12:29:45.557Z,2.20
2023-01-29T12:32:27.406Z,2.10
2023-01-29T12:35:10.440Z,2.50
2023-01-29T12:37:55.952Z,2.60
2023-01-29T12:40:26.854Z,2.70
2023-01-29T12:42:57.815Z,2.90
2023-01-29T12:45:26.553Z,2.60
2023-01-29T12:47:59.184Z,2.90
2023-01-29T12:50:32.897Z,3.10
2023-01-29T12:53:06.296Z,3.20
2023-01-29T12:55:36.903Z,3.40
2023-01-29T12:58:09.750Z,3.40
2023-01-29T13:00:40.241Z,3.80
2023-01-29T13:03:32.750Z,3.80
2023-01-29T13:06:08.529Z,3.90
2023-01-29T13:08:45.436Z,3.00
2023-01-29T13:11:24.341Z,3.20
2023-01-29T13:14:01.933Z,3.60
2023-01-29T13:16:41.693Z,3.80
2023-01-29T13:19:29.371Z,4.00
2023-01-29T13:21:59.661Z,4.10
2023-01-29T13:24:33.625Z,4.20
2023-01-29T13:27:01.137Z,4.20
2023-01-29T13:29:31.448Z,4.30
2023-01-29T13:32:00.714Z,4.30
2023-01-29T13:34:34.159Z,4.30
2023-01-29T13:37:16.017Z,4.50
2023-01-29T13:39:52.218Z,4.60
2023-01-29T13:42:26.413Z,4.60
2023-01-29T13:44:56.556Z,3.70
2023-01-29T13:47:29.140Z,3.90
2023-01-29T13:50:01.308Z,4.10
2023-01-29T13:52:34.677Z,4.30
2023-01-29T13:55:21.505Z,4.30
2023-01-29T13:57:55.990Z,4.40
2023-01-29T14:00:24.333Z,4.50
2023-01-29T14:02:59.917Z,4.30
2023-01-29T14:05:29.626Z,4.40
2023-01-29T14:08:09.289Z,4.40
2023-01-29T14:10:39.412Z,4.40
2023-01-29T14:13:18.396Z,4.40
2023-01-29T14:15:57.336Z,4.40
2023-01-29T14:18:26.564Z,3.90
2023-01-29T14:20:58.260Z,3.50
2023-01-29T14:23:33.320Z,3.50
2023-01-29T14:26:02.905Z,3.80
2023-01-29T14:28:32.140Z,3.90
2023-01-29T14:30:59.532Z,3.70
2023-01-29T14:33:36.644Z,3.60
2023-01-29T14:36:30.705Z,4.10
2023-01-29T14:38:59.319Z,3.70
2023-01-29T14:41:31.349Z,3.80
2023-01-29T14:44:35.670Z,4.20
2023-01-29T14:47:02.449Z,4.40
2023-01-29T14:49:48.809Z,4.30
2023-01-29T14:52:17.102Z,4.40
2023-01-29T14:54:46.094Z,4.50
2023-01-29T14:57:14.961Z,4.50
2023-01-29T15:00:01.012Z,4.50
2023-01-29T15:02:38.380Z,4.40
2023-01-29T15:05:10.830Z,4.40
2023-01-29T15:07:44.121Z,4.40
2023-01-29T15:10:23.464Z,4.60
2023-01-29T15:13:01.862Z,4.60
2023-01-29T15:16:04.482Z,4.60
2023-01-29T15:18:42.334Z,4.50
2023-01-29T15:21:14.876Z,4.30
2023-01-29T15:23:43.222Z,4.20
2023-01-29T15:26:12.437Z,4.20
2023-01-29T15:28:39.790Z,4.10
2023-01-29T15:31:13.217Z,4.10
2023-01-29T15:33:44.586Z,3.90
2023-01-29T15:36:20.773Z,3.90
2023-01-29T15:38:47.449Z,3.90
2023-01-29T15:41:21.520Z,3.90
2023-01-29T15:43:51.580Z,3.80
2023-01-29T15:46:26.643Z,3.70
2023-01-29T15:48:55.915Z,3.70
2023-01-29T15:51:25.300Z,3.70
2023-01-29T15:53:58.303Z,3.60
2023-01-29T15:56:29.721Z,3.60
2023-01-29T15:58:58.838Z,3.50
2023-01-29T16:01:29.670Z,3.40
2023-01-29T16:04:04.062Z,3.40
2023-01-29T16:06:37.617Z,3.30
2023-01-29T16:09:05.856Z,3.30
2023-01-29T16:11:34.245Z,3.20
2023-01-29T16:14:05.817Z,3.20
2023-01-29T16:16:49.693Z,3.10
2023-01-29T16:19:29.731Z,3.10
2023-01-29T16:22:05.265Z,3.00
2023-01-29T16:24:36.450Z,2.90
2023-01-29T16:27:10.984Z,2.90
2023-01-29T16:29:38.934Z,2.90
2023-01-29T16:32:06.905Z,2.80
2023-01-29T16:34:40.793Z,2.80
2023-01-29T16:37:25.776Z,2.70
2023-01-29T16:39:52.893Z,2.70
2023-01-29T16:42:30.472Z,2.60
2023-01-29T16:45:00.306Z,2.60
2023-01-29T16:47:34.477Z,2.40
2023-01-29T16:50:05.655Z,2.30
2023-01-29T16:52:34.567Z,2.30
2023-01-29T16:55:19.598Z,2.40
2023-01-29T16:57:52.518Z,2.30
2023-01-29T17:00:30.105Z,2.30
2023-01-29T17:03:06.416Z,2.20
2023-01-29T17:05:36.789Z,2.20
2023-01-29T17:08:04.772Z,2.20
2023-01-29T17:10:32.248Z,2.20
2023-01-29T17:13:07.060Z,2.20
2023-01-29T17:15:45.311Z,2.10
2023-01-29T17:18:20.506Z,2.10
2023-01-29T17:20:47.687Z,2.00
2023-01-29T17:23:14.440Z,2.00
2023-01-29T17:25:41.410Z,1.90
2023-01-29T17:28:10.992Z,1.80
2023-01-29T17:30:38.652Z,1.60
2023-01-29T17:33:13.598Z,1.60
2023-01-29T17:35:42.274Z,1.70
2023-01-29T17:38:25.648Z,1.70
2023-01-29T17:41:00.053Z,1.70
2023-01-29T17:43:26.777Z,1.70
2023-01-29T17:45:53.771Z,1.50
2023-01-29T17:48:26.597Z,1.60
2023-01-29T17:50:55.812Z,1.50
2023-01-29T17:53:26.568Z,1.40
2023-01-29T17:55:57.213Z,1.30
2023-01-29T17:58:26.217Z,1.40
2023-01-29T18:00:53.823Z,1.50
2023-01-29T18:03:21.500Z,1.50
2023-01-29T18:05:49.489Z,1.50
2023-01-29T18:08:25.813Z,1.50
2023-01-29T18:10:52.488Z,1.20
2023-01-29T18:13:19.141Z,0.90
2023-01-29T18:15:45.799Z,0.90
2023-01-29T18:18:19.440Z,1.10
2023-01-29T18:20:46.668Z,1.20
2023-01-29T18:23:13.609Z,1.30
2023-01-29T18:25:40.795Z,1.30
2023-01-29T18:28:07.615Z,1.30
2023-01-29T18:30:34.324Z,1.30
2023-01-29T18:33:00.999Z,1.30
2023-01-29T18:35:28.461Z,1.30
2023-01-29T18:37:55.130Z,1.30
2023-01-29T18:40:21.935Z,1.30
2023-01-29T18:42:48.623Z,1.30
2023-01-29T18:45:16.626Z,1.20
2023-01-29T18:47:43.406Z,1.20
2023-01-29T18:50:11.381Z,1.20
2023-01-29T18:52:38.020Z,1.20
2023-01-29T18:55:04.983Z,1.20
2023-01-29T18:58:27.116Z,1.20
2023-01-29T19:00:19.856Z,1.20
2023-01-29T19:02:46.502Z,1.10
2023-01-29T19:05:13.279Z,1.20
2023-01-29T19:07:39.918Z,1.20
2023-01-29T19:10:09.244Z,1.20
2023-01-29T19:12:35.921Z,1.20
2023-01-29T19:15:02.611Z,1.20
2023-01-29T19:17:29.325Z,1.20
2023-01-29T19:20:01.904Z,1.30
2023-01-29T19:22:29.446Z,1.30
2023-01-29T19:24:56.122Z,1.20
2023-01-29T19:27:23.168Z,1.20
2023-01-29T19:29:50.945Z,1.20
2023-01-29T19:32:17.722Z,1.10
2023-01-29T19:34:44.410Z,1.10
2023-01-29T19:37:11.076Z,1.10
2023-01-29T19:39:37.804Z,1.10
2023-01-29T19:42:04.510Z,1.00
2023-01-29T19:44:31.269Z,0.90
2023-01-29T19:46:57.903Z,0.90
2023-01-29T19:49:25.564Z,0.90
2023-01-29T19:51:52.316Z,0.90
2023-01-29T19:54:20.907Z,0.90
2023-01-29T19:56:47.602Z,0.90
2023-01-29T19:59:14.298Z,0.90
2023-01-29T20:01:40.917Z,0.90
2023-01-29T20:04:07.593Z,0.90
2023-01-29T20:06:34.329Z,0.80
2023-01-29T20:09:02.944Z,0.90
2023-01-29T20:11:30.744Z,1.00
2023-01-29T20:13:58.651Z,1.00
2023-01-29T20:16:26.568Z,1.00
2023-01-29T20:18:53.479Z,0.90
2023-01-29T20:21:21.986Z,0.80
2023-01-29T20:23:50.530Z,0.70
2023-01-29T20:26:18.153Z,0.70
2023-01-29T20:28:48.724Z,0.70
2023-01-29T20:31:16.170Z,0.80
2023-01-29T20:33:42.923Z,0.80
2023-01-29T20:36:12.074Z,0.90
2023-01-29T20:38:38.824Z,0.90
2023-01-29T20:41:19.187Z,0.90
2023-01-29T20:43:47.024Z,0.80
2023-01-29T20:46:14.070Z,0.80
2023-01-29T20:48:42.084Z,0.90
2023-01-29T20:51:15.140Z,0.80
2023-01-29T20:53:43.225Z,0.90
2023-01-29T20:56:11.309Z,0.90
2023-01-29T20:58:38.358Z,0.90
2023-01-29T21:01:13.396Z,0.90
2023-01-29T21:03:40.356Z,0.90
2023-01-29T21:06:08.727Z,1.00
2023-01-29T21:08:36.399Z,0.90
2023-01-29T21:11:04.344Z,0.90
2023-01-29T21:13:31.394Z,0.90
2023-01-29T21:15:58.117Z,0.90
2023-01-29T21:18:26.414Z,0.90
2023-01-29T21:20:54.055Z,0.80
2023-01-29T21:23:21.061Z,0.50
2023-01-29T21:25:48.138Z,0.30
2023-01-29T21:28:15.637Z,0.40
2023-01-29T21:30:42.618Z,0.30
2023-01-29T21:33:09.357Z,0.40
2023-01-29T21:35:37.914Z,0.40
2023-01-29T21:38:05.094Z,0.40
2023-01-29T21:40:32.065Z,0.40
2023-01-29T21:43:15.352Z,0.00
2023-01-29T21:45:42.772Z,0.00
2023-01-29T21:48:11.575Z,0.10
2023-01-29T21:50:38.819Z,0.20
2023-01-29T21:53:05.584Z,-0.10
2023-01-29T21:55:32.835Z,-0.30
2023-01-29T21:58:00.281Z,-0.30
2023-01-29T22:00:27.292Z,-0.20
2023-01-29T22:02:54.143Z,-0.50
2023-01-29T22:05:20.925Z,-0.70
2023-01-29T22:07:48.348Z,-0.70
2023-01-29T22:10:19.035Z,-0.80
2023-01-29T22:12:46.735Z,-0.80
2023-01-29T22:15:14.475Z,-1.00
2023-01-29T22:17:42.131Z,-1.10
2023-01-29T22:20:11.300Z,-0.80
2023-01-29T22:22:37.991Z,-0.50
2023-01-29T22:25:05.295Z,-0.30
2023-01-29T22:27:33.330Z,-0.20
2023-01-29T22:30:00.283Z,-0.10
2023-01-29T22:32:27.286Z,0.00
2023-01-29T22:34:54.061Z,-0.10
2023-01-29T22:37:20.711Z,0.00
2023-01-29T22:39:47.503Z,0.10
2023-01-29T22:42:14.165Z,0.10
2023-01-29T22:44:41.324Z,0.10
2023-01-29T22:47:08.085Z,0.10
2023-01-29T22:49:34.816Z,0.10
2023-01-29T22:52:10.803Z,0.10
2023-01-29T22:54:42.908Z,0.10
2023-01-29T22:57:14.707Z,0.10
2023-01-29T22:59:41.446Z,0.10
2023-01-29T23:02:08.748Z,0.10
2023-01-29T23:04:35.529Z,0.10
2023-01-29T23:07:02.839Z,0.10
2023-01-29T23:09:29.527Z,0.10
2023-01-29T23:11:56.150Z,0.10
2023-01-29T23:14:22.869Z,0.10
2023-01-29T23:16:49.636Z,0.10
2023-01-29T23:19:16.367Z,0.20
2023-01-29T23:21:43.363Z,0.20
2023-01-29T23:24:10.522Z,0.20
2023-01-29T23:26:55.812Z,0.30
2023-01-29T23:29:22.748Z,0.30
2023-01-29T23:31:49.407Z,0.30
2023-01-29T23:34:16.328Z,0.30
2023-01-29T23:36:43.445Z,0.30
2023-01-29T23:39:10.674Z,0.20
2023-01-29T23:41:37.380Z,0.20
2023-01-29T23:44:04.347Z,0.10
2023-01-29T23:46:31.300Z,0.10
2023-01-29T23:48:58.355Z,0.00
2023-01-29T23:51:25.159Z,-0.10
2023-01-29T23:53:51.770Z,0.00
2023-01-29T23:56:18.425Z,-0.10
2023-01-29T23:58:45.864Z,0.00
